sensor_id;sensor_type;location;lat;lon;timestamp;P1;durP1;ratioP1;P2;durP2;ratioP2
8986;SDS011;4529;51.360;12.474;2023-05-29T00:04:52;6.93;;;3.63;;
8986;SDS011;4529;51.360;12.474;2023-05-29T00:09:56;6.13;;;3.67;;
8986;SDS011;4529;51.360;12.474;2023-05-29T00:15:00;4.27;;;3.63;;
8986;SDS011;4529;51.360;12.474;2023-05-29T00:20:04;5.83;;;3.60;;
8986;SDS011;4529;51.360;12.474;2023-05-29T00:25:08;4.10;;;3.47;;
8986;SDS011;4529;51.360;12.474;2023-05-29T00:30:12;4.37;;;3.50;;
8986;SDS011;4529;51.360;12.474;2023-05-29T00:35:17;4.90;;;3.27;;
8986;SDS011;4529;51.360;12.474;2023-05-29T00:40:21;4.37;;;3.50;;
8986;SDS011;4529;51.360;12.474;2023-05-29T00:45:25;5.67;;;3.57;;
8986;SDS011;4529;51.360;12.474;2023-05-29T00:50:29;3.90;;;3.40;;
8986;SDS011;4529;51.360;12.474;2023-05-29T00:55:33;6.93;;;3.33;;
8986;SDS011;4529;51.360;12.474;2023-05-29T01:00:37;4.33;;;3.40;;
8986;SDS011;4529;51.360;12.474;2023-05-29T01:05:41;4.67;;;3.30;;
8986;SDS011;4529;51.360;12.474;2023-05-29T01:10:45;8.53;;;3.20;;
8986;SDS011;4529;51.360;12.474;2023-05-29T01:21:03;3.90;;;3.20;;
8986;SDS011;4529;51.360;12.474;2023-05-29T01:26:23;3.27;;;2.97;;
8986;SDS011;4529;51.360;12.474;2023-05-29T01:31:49;3.70;;;3.30;;
8986;SDS011;4529;51.360;12.474;2023-05-29T01:36:53;3.77;;;3.10;;
8986;SDS011;4529;51.360;12.474;2023-05-29T01:41:57;3.57;;;2.97;;
8986;SDS011;4529;51.360;12.474;2023-05-29T01:47:01;3.57;;;3.23;;
8986;SDS011;4529;51.360;12.474;2023-05-29T01:52:05;7.03;;;3.50;;
8986;SDS011;4529;51.360;12.474;2023-05-29T01:57:13;4.83;;;3.37;;
8986;SDS011;4529;51.360;12.474;2023-05-29T02:02:16;5.57;;;3.17;;
8986;SDS011;4529;51.360;12.474;2023-05-29T02:07:20;3.87;;;3.37;;
8986;SDS011;4529;51.360;12.474;2023-05-29T02:12:23;6.23;;;3.30;;
8986;SDS011;4529;51.360;12.474;2023-05-29T02:17:27;3.97;;;3.20;;
8986;SDS011;4529;51.360;12.474;2023-05-29T02:22:30;5.13;;;3.20;;
8986;SDS011;4529;51.360;12.474;2023-05-29T02:27:34;3.97;;;3.60;;
8986;SDS011;4529;51.360;12.474;2023-05-29T02:32:37;3.93;;;3.40;;
8986;SDS011;4529;51.360;12.474;2023-05-29T02:37:41;4.37;;;3.33;;
8986;SDS011;4529;51.360;12.474;2023-05-29T02:42:44;3.77;;;3.43;;
8986;SDS011;4529;51.360;12.474;2023-05-29T02:47:47;4.93;;;3.43;;
8986;SDS011;4529;51.360;12.474;2023-05-29T02:52:51;4.13;;;3.50;;
8986;SDS011;4529;51.360;12.474;2023-05-29T02:57:55;3.73;;;3.43;;
8986;SDS011;4529;51.360;12.474;2023-05-29T03:02:59;4.70;;;3.23;;
8986;SDS011;4529;51.360;12.474;2023-05-29T03:08:03;5.27;;;3.30;;
8986;SDS011;4529;51.360;12.474;2023-05-29T03:13:06;3.50;;;3.17;;
8986;SDS011;4529;51.360;12.474;2023-05-29T03:18:10;4.33;;;3.70;;
8986;SDS011;4529;51.360;12.474;2023-05-29T03:23:13;7.60;;;3.57;;
8986;SDS011;4529;51.360;12.474;2023-05-29T03:28:17;4.77;;;3.73;;
8986;SDS011;4529;51.360;12.474;2023-05-29T03:33:20;4.93;;;3.87;;
8986;SDS011;4529;51.360;12.474;2023-05-29T03:38:24;3.87;;;3.47;;
8986;SDS011;4529;51.360;12.474;2023-05-29T03:43:27;10.70;;;4.10;;
8986;SDS011;4529;51.360;12.474;2023-05-29T03:48:31;5.40;;;3.83;;
8986;SDS011;4529;51.360;12.474;2023-05-29T03:53:34;4.07;;;3.67;;
8986;SDS011;4529;51.360;12.474;2023-05-29T03:58:38;4.17;;;3.77;;
8986;SDS011;4529;51.360;12.474;2023-05-29T04:03:41;4.90;;;3.93;;
8986;SDS011;4529;51.360;12.474;2023-05-29T04:08:45;4.27;;;3.50;;
8986;SDS011;4529;51.360;12.474;2023-05-29T04:13:48;3.80;;;3.40;;
8986;SDS011;4529;51.360;12.474;2023-05-29T04:18:51;3.20;;;2.90;;
8986;SDS011;4529;51.360;12.474;2023-05-29T04:23:55;3.73;;;3.17;;
8986;SDS011;4529;51.360;12.474;2023-05-29T04:28:58;4.70;;;3.17;;
8986;SDS011;4529;51.360;12.474;2023-05-29T04:34:02;4.20;;;3.30;;
8986;SDS011;4529;51.360;12.474;2023-05-29T04:39:05;4.50;;;3.87;;
8986;SDS011;4529;51.360;12.474;2023-05-29T04:44:09;4.03;;;3.63;;
8986;SDS011;4529;51.360;12.474;2023-05-29T04:49:13;4.73;;;3.80;;
8986;SDS011;4529;51.360;12.474;2023-05-29T04:54:16;4.33;;;3.90;;
8986;SDS011;4529;51.360;12.474;2023-05-29T04:59:20;4.97;;;3.70;;
8986;SDS011;4529;51.360;12.474;2023-05-29T05:04:23;4.57;;;3.33;;
8986;SDS011;4529;51.360;12.474;2023-05-29T05:09:27;7.17;;;3.90;;
8986;SDS011;4529;51.360;12.474;2023-05-29T05:14:30;4.80;;;3.70;;
8986;SDS011;4529;51.360;12.474;2023-05-29T05:19:34;5.83;;;4.00;;
8986;SDS011;4529;51.360;12.474;2023-05-29T05:24:37;6.10;;;4.00;;
8986;SDS011;4529;51.360;12.474;2023-05-29T05:29:41;6.17;;;3.63;;
8986;SDS011;4529;51.360;12.474;2023-05-29T05:34:44;4.37;;;3.30;;
8986;SDS011;4529;51.360;12.474;2023-05-29T05:39:48;6.33;;;3.30;;
8986;SDS011;4529;51.360;12.474;2023-05-29T05:44:51;5.57;;;3.27;;
8986;SDS011;4529;51.360;12.474;2023-05-29T05:49:54;5.30;;;3.33;;
8986;SDS011;4529;51.360;12.474;2023-05-29T05:55:01;5.43;;;3.40;;
8986;SDS011;4529;51.360;12.474;2023-05-29T06:00:06;5.93;;;3.77;;
8986;SDS011;4529;51.360;12.474;2023-05-29T06:05:09;5.70;;;3.77;;
8986;SDS011;4529;51.360;12.474;2023-05-29T06:10:13;10.37;;;3.73;;
8986;SDS011;4529;51.360;12.474;2023-05-29T06:15:16;5.43;;;3.53;;
8986;SDS011;4529;51.360;12.474;2023-05-29T06:20:20;6.20;;;3.40;;
8986;SDS011;4529;51.360;12.474;2023-05-29T06:25:23;5.20;;;3.43;;
8986;SDS011;4529;51.360;12.474;2023-05-29T06:30:27;6.37;;;3.80;;
8986;SDS011;4529;51.360;12.474;2023-05-29T06:35:31;6.50;;;3.50;;
8986;SDS011;4529;51.360;12.474;2023-05-29T06:40:35;6.50;;;3.77;;
8986;SDS011;4529;51.360;12.474;2023-05-29T06:45:39;4.80;;;3.50;;
8986;SDS011;4529;51.360;12.474;2023-05-29T06:50:43;7.17;;;3.70;;
8986;SDS011;4529;51.360;12.474;2023-05-29T06:55:52;5.73;;;3.60;;
8986;SDS011;4529;51.360;12.474;2023-05-29T07:00:56;6.93;;;3.40;;
8986;SDS011;4529;51.360;12.474;2023-05-29T07:05:59;5.37;;;3.40;;
8986;SDS011;4529;51.360;12.474;2023-05-29T07:11:03;7.30;;;3.73;;
8986;SDS011;4529;51.360;12.474;2023-05-29T07:16:07;8.10;;;3.67;;
8986;SDS011;4529;51.360;12.474;2023-05-29T07:21:10;5.60;;;3.40;;
8986;SDS011;4529;51.360;12.474;2023-05-29T07:26:14;7.07;;;3.53;;
8986;SDS011;4529;51.360;12.474;2023-05-29T07:31:17;7.17;;;3.57;;
8986;SDS011;4529;51.360;12.474;2023-05-29T07:36:21;7.60;;;3.50;;
8986;SDS011;4529;51.360;12.474;2023-05-29T07:41:24;5.67;;;3.33;;
8986;SDS011;4529;51.360;12.474;2023-05-29T07:46:28;5.67;;;3.37;;
8986;SDS011;4529;51.360;12.474;2023-05-29T07:51:31;4.90;;;3.20;;
8986;SDS011;4529;51.360;12.474;2023-05-29T07:56:35;5.50;;;3.13;;
8986;SDS011;4529;51.360;12.474;2023-05-29T08:01:38;4.60;;;2.80;;
8986;SDS011;4529;51.360;12.474;2023-05-29T08:06:42;4.10;;;2.80;;
8986;SDS011;4529;51.360;12.474;2023-05-29T08:11:45;4.73;;;3.20;;
8986;SDS011;4529;51.360;12.474;2023-05-29T08:16:48;4.17;;;3.10;;
8986;SDS011;4529;51.360;12.474;2023-05-29T08:21:52;5.27;;;3.07;;
8986;SDS011;4529;51.360;12.474;2023-05-29T08:26:55;4.23;;;2.63;;
8986;SDS011;4529;51.360;12.474;2023-05-29T08:31:59;5.33;;;3.10;;
8986;SDS011;4529;51.360;12.474;2023-05-29T08:37:03;4.83;;;2.87;;
8986;SDS011;4529;51.360;12.474;2023-05-29T08:42:12;4.80;;;2.73;;
8986;SDS011;4529;51.360;12.474;2023-05-29T08:47:16;5.53;;;3.20;;
8986;SDS011;4529;51.360;12.474;2023-05-29T08:52:22;7.70;;;3.20;;
8986;SDS011;4529;51.360;12.474;2023-05-29T08:57:30;5.77;;;3.27;;
8986;SDS011;4529;51.360;12.474;2023-05-29T09:02:33;4.67;;;3.10;;
8986;SDS011;4529;51.360;12.474;2023-05-29T09:07:37;5.43;;;3.13;;
8986;SDS011;4529;51.360;12.474;2023-05-29T09:12:40;4.73;;;2.87;;
8986;SDS011;4529;51.360;12.474;2023-05-29T09:17:46;4.60;;;3.00;;
8986;SDS011;4529;51.360;12.474;2023-05-29T09:22:54;4.93;;;3.10;;
8986;SDS011;4529;51.360;12.474;2023-05-29T09:28:02;3.80;;;2.63;;
8986;SDS011;4529;51.360;12.474;2023-05-29T09:33:06;3.77;;;2.60;;
8986;SDS011;4529;51.360;12.474;2023-05-29T09:38:09;4.03;;;2.60;;
8986;SDS011;4529;51.360;12.474;2023-05-29T09:43:16;6.03;;;3.30;;
8986;SDS011;4529;51.360;12.474;2023-05-29T09:48:22;5.83;;;3.00;;
8986;SDS011;4529;51.360;12.474;2023-05-29T09:53:25;6.20;;;3.37;;
8986;SDS011;4529;51.360;12.474;2023-05-29T09:58:29;7.23;;;3.50;;
8986;SDS011;4529;51.360;12.474;2023-05-29T10:03:32;4.33;;;3.37;;
8986;SDS011;4529;51.360;12.474;2023-05-29T10:08:35;4.53;;;3.33;;
8986;SDS011;4529;51.360;12.474;2023-05-29T10:13:39;5.43;;;3.40;;
8986;SDS011;4529;51.360;12.474;2023-05-29T10:18:43;6.20;;;3.70;;
8986;SDS011;4529;51.360;12.474;2023-05-29T10:23:47;6.03;;;3.10;;
8986;SDS011;4529;51.360;12.474;2023-05-29T10:28:58;6.13;;;3.37;;
8986;SDS011;4529;51.360;12.474;2023-05-29T10:34:31;6.63;;;3.00;;
8986;SDS011;4529;51.360;12.474;2023-05-29T10:39:53;11.03;;;3.33;;
8986;SDS011;4529;51.360;12.474;2023-05-29T10:44:57;5.77;;;2.93;;
8986;SDS011;4529;51.360;12.474;2023-05-29T10:50:00;5.13;;;3.10;;
8986;SDS011;4529;51.360;12.474;2023-05-29T10:55:04;4.93;;;3.00;;
8986;SDS011;4529;51.360;12.474;2023-05-29T11:00:07;2.97;;;2.70;;
8986;SDS011;4529;51.360;12.474;2023-05-29T11:05:18;4.03;;;2.93;;
8986;SDS011;4529;51.360;12.474;2023-05-29T11:11:06;4.03;;;2.80;;
8986;SDS011;4529;51.360;12.474;2023-05-29T11:15:42;5.07;;;3.13;;
8986;SDS011;4529;51.360;12.474;2023-05-29T11:20:50;4.20;;;2.90;;
8986;SDS011;4529;51.360;12.474;2023-05-29T11:25:55;3.60;;;3.00;;
8986;SDS011;4529;51.360;12.474;2023-05-29T11:30:59;3.50;;;2.80;;
8986;SDS011;4529;51.360;12.474;2023-05-29T11:41:00;4.33;;;3.00;;
8986;SDS011;4529;51.360;12.474;2023-05-29T11:46:14;4.50;;;2.83;;
8986;SDS011;4529;51.360;12.474;2023-05-29T11:51:19;3.20;;;2.60;;
8986;SDS011;4529;51.360;12.474;2023-05-29T11:56:32;5.23;;;2.90;;
8986;SDS011;4529;51.360;12.474;2023-05-29T12:01:27;3.53;;;3.00;;
8986;SDS011;4529;51.360;12.474;2023-05-29T12:06:34;4.73;;;2.80;;
8986;SDS011;4529;51.360;12.474;2023-05-29T12:11:35;5.00;;;3.47;;
8986;SDS011;4529;51.360;12.474;2023-05-29T12:16:39;3.53;;;3.10;;
8986;SDS011;4529;51.360;12.474;2023-05-29T12:21:43;5.20;;;3.47;;
8986;SDS011;4529;51.360;12.474;2023-05-29T12:26:46;3.90;;;3.50;;
8986;SDS011;4529;51.360;12.474;2023-05-29T12:31:57;4.13;;;3.10;;
8986;SDS011;4529;51.360;12.474;2023-05-29T12:36:53;6.17;;;3.40;;
8986;SDS011;4529;51.360;12.474;2023-05-29T12:41:57;4.37;;;3.00;;
8986;SDS011;4529;51.360;12.474;2023-05-29T12:47:00;5.00;;;3.03;;
8986;SDS011;4529;51.360;12.474;2023-05-29T12:52:07;3.43;;;2.87;;
8986;SDS011;4529;51.360;12.474;2023-05-29T12:57:10;3.60;;;2.73;;
8986;SDS011;4529;51.360;12.474;2023-05-29T13:02:14;4.07;;;2.80;;
8986;SDS011;4529;51.360;12.474;2023-05-29T13:07:18;3.53;;;2.70;;
8986;SDS011;4529;51.360;12.474;2023-05-29T13:12:22;4.33;;;3.40;;
8986;SDS011;4529;51.360;12.474;2023-05-29T13:17:27;5.57;;;3.13;;
8986;SDS011;4529;51.360;12.474;2023-05-29T13:22:31;4.73;;;3.20;;
8986;SDS011;4529;51.360;12.474;2023-05-29T13:27:39;3.37;;;3.07;;
8986;SDS011;4529;51.360;12.474;2023-05-29T13:32:41;3.83;;;3.17;;
8986;SDS011;4529;51.360;12.474;2023-05-29T13:37:45;5.13;;;3.10;;
8986;SDS011;4529;51.360;12.474;2023-05-29T13:42:48;4.10;;;3.10;;
8986;SDS011;4529;51.360;12.474;2023-05-29T13:47:52;4.47;;;2.93;;
8986;SDS011;4529;51.360;12.474;2023-05-29T13:52:55;5.80;;;3.40;;
8986;SDS011;4529;51.360;12.474;2023-05-29T13:57:59;3.97;;;2.90;;
8986;SDS011;4529;51.360;12.474;2023-05-29T14:03:04;4.67;;;3.00;;
8986;SDS011;4529;51.360;12.474;2023-05-29T14:08:07;5.60;;;2.83;;
8986;SDS011;4529;51.360;12.474;2023-05-29T14:13:11;3.80;;;2.70;;
8986;SDS011;4529;51.360;12.474;2023-05-29T14:18:15;5.20;;;2.90;;
8986;SDS011;4529;51.360;12.474;2023-05-29T14:23:20;3.00;;;2.70;;
8986;SDS011;4529;51.360;12.474;2023-05-29T14:28:24;2.70;;;2.43;;
8986;SDS011;4529;51.360;12.474;2023-05-29T14:33:28;5.93;;;2.90;;
8986;SDS011;4529;51.360;12.474;2023-05-29T14:38:32;5.80;;;2.80;;
8986;SDS011;4529;51.360;12.474;2023-05-29T14:43:37;3.50;;;2.80;;
8986;SDS011;4529;51.360;12.474;2023-05-29T14:48:42;3.43;;;2.60;;
8986;SDS011;4529;51.360;12.474;2023-05-29T14:53:46;3.53;;;2.70;;
8986;SDS011;4529;51.360;12.474;2023-05-29T14:58:50;4.33;;;2.87;;
8986;SDS011;4529;51.360;12.474;2023-05-29T15:03:53;4.50;;;2.80;;
8986;SDS011;4529;51.360;12.474;2023-05-29T15:08:57;3.10;;;2.80;;
8986;SDS011;4529;51.360;12.474;2023-05-29T15:14:00;3.00;;;2.70;;
8986;SDS011;4529;51.360;12.474;2023-05-29T15:19:04;3.77;;;2.87;;
8986;SDS011;4529;51.360;12.474;2023-05-29T15:24:07;4.33;;;2.80;;
8986;SDS011;4529;51.360;12.474;2023-05-29T15:29:11;2.80;;;2.60;;
8986;SDS011;4529;51.360;12.474;2023-05-29T15:34:14;3.57;;;2.83;;
8986;SDS011;4529;51.360;12.474;2023-05-29T15:39:18;2.90;;;2.57;;
8986;SDS011;4529;51.360;12.474;2023-05-29T15:44:21;3.40;;;2.57;;
8986;SDS011;4529;51.360;12.474;2023-05-29T15:49:25;5.97;;;2.70;;
8986;SDS011;4529;51.360;12.474;2023-05-29T15:54:29;3.33;;;2.60;;
8986;SDS011;4529;51.360;12.474;2023-05-29T15:59:34;2.90;;;2.67;;
8986;SDS011;4529;51.360;12.474;2023-05-29T16:04:38;6.67;;;2.70;;
8986;SDS011;4529;51.360;12.474;2023-05-29T16:09:42;3.17;;;2.70;;
8986;SDS011;4529;51.360;12.474;2023-05-29T16:14:46;3.53;;;2.80;;
8986;SDS011;4529;51.360;12.474;2023-05-29T16:19:50;4.30;;;2.80;;
8986;SDS011;4529;51.360;12.474;2023-05-29T16:24:54;3.97;;;2.80;;
8986;SDS011;4529;51.360;12.474;2023-05-29T16:29:58;2.87;;;2.57;;
8986;SDS011;4529;51.360;12.474;2023-05-29T16:35:04;5.07;;;2.87;;
8986;SDS011;4529;51.360;12.474;2023-05-29T16:40:08;4.23;;;2.77;;
8986;SDS011;4529;51.360;12.474;2023-05-29T16:45:11;3.73;;;2.70;;
8986;SDS011;4529;51.360;12.474;2023-05-29T16:50:14;3.63;;;2.50;;
8986;SDS011;4529;51.360;12.474;2023-05-29T16:55:18;6.87;;;2.90;;
8986;SDS011;4529;51.360;12.474;2023-05-29T17:00:21;4.93;;;2.50;;
8986;SDS011;4529;51.360;12.474;2023-05-29T17:05:25;3.17;;;2.60;;
8986;SDS011;4529;51.360;12.474;2023-05-29T17:10:32;3.23;;;2.67;;
8986;SDS011;4529;51.360;12.474;2023-05-29T17:15:36;3.77;;;3.00;;
8986;SDS011;4529;51.360;12.474;2023-05-29T17:20:40;4.07;;;3.07;;
8986;SDS011;4529;51.360;12.474;2023-05-29T17:25:43;5.00;;;2.90;;
8986;SDS011;4529;51.360;12.474;2023-05-29T17:30:47;13.20;;;3.93;;
8986;SDS011;4529;51.360;12.474;2023-05-29T17:35:50;7.73;;;3.40;;
8986;SDS011;4529;51.360;12.474;2023-05-29T17:40:54;7.43;;;3.30;;
8986;SDS011;4529;51.360;12.474;2023-05-29T17:45:58;7.13;;;3.10;;
8986;SDS011;4529;51.360;12.474;2023-05-29T17:51:03;4.10;;;2.80;;
8986;SDS011;4529;51.360;12.474;2023-05-29T17:56:06;11.83;;;3.10;;
8986;SDS011;4529;51.360;12.474;2023-05-29T18:01:10;4.07;;;3.10;;
8986;SDS011;4529;51.360;12.474;2023-05-29T18:06:13;3.67;;;2.70;;
8986;SDS011;4529;51.360;12.474;2023-05-29T18:11:17;4.20;;;3.20;;
8986;SDS011;4529;51.360;12.474;2023-05-29T18:16:20;3.83;;;2.90;;
8986;SDS011;4529;51.360;12.474;2023-05-29T18:21:23;5.03;;;2.80;;
8986;SDS011;4529;51.360;12.474;2023-05-29T18:26:27;4.00;;;2.80;;
8986;SDS011;4529;51.360;12.474;2023-05-29T18:31:30;4.47;;;2.50;;
8986;SDS011;4529;51.360;12.474;2023-05-29T18:36:34;5.70;;;2.53;;
8986;SDS011;4529;51.360;12.474;2023-05-29T18:41:37;4.07;;;2.90;;
8986;SDS011;4529;51.360;12.474;2023-05-29T18:46:41;5.07;;;2.50;;
8986;SDS011;4529;51.360;12.474;2023-05-29T18:51:45;4.10;;;2.80;;
8986;SDS011;4529;51.360;12.474;2023-05-29T18:56:49;3.50;;;2.70;;
8986;SDS011;4529;51.360;12.474;2023-05-29T19:01:53;4.23;;;2.57;;
8986;SDS011;4529;51.360;12.474;2023-05-29T19:06:57;3.93;;;2.60;;
8986;SDS011;4529;51.360;12.474;2023-05-29T19:12:01;5.27;;;2.60;;
8986;SDS011;4529;51.360;12.474;2023-05-29T19:17:06;4.17;;;2.50;;
8986;SDS011;4529;51.360;12.474;2023-05-29T19:22:10;4.53;;;2.80;;
8986;SDS011;4529;51.360;12.474;2023-05-29T19:27:13;5.50;;;2.70;;
8986;SDS011;4529;51.360;12.474;2023-05-29T19:32:17;3.67;;;2.60;;
8986;SDS011;4529;51.360;12.474;2023-05-29T19:37:20;3.80;;;2.50;;
8986;SDS011;4529;51.360;12.474;2023-05-29T19:42:24;4.20;;;2.40;;
8986;SDS011;4529;51.360;12.474;2023-05-29T19:47:27;3.43;;;2.40;;
8986;SDS011;4529;51.360;12.474;2023-05-29T19:52:31;5.07;;;2.47;;
8986;SDS011;4529;51.360;12.474;2023-05-29T19:57:35;9.60;;;2.63;;
8986;SDS011;4529;51.360;12.474;2023-05-29T20:02:39;6.97;;;2.73;;
8986;SDS011;4529;51.360;12.474;2023-05-29T20:07:43;4.50;;;2.43;;
8986;SDS011;4529;51.360;12.474;2023-05-29T20:12:47;3.13;;;2.20;;
8986;SDS011;4529;51.360;12.474;2023-05-29T20:17:51;4.37;;;2.33;;
8986;SDS011;4529;51.360;12.474;2023-05-29T20:22:54;3.97;;;2.40;;
8986;SDS011;4529;51.360;12.474;2023-05-29T20:27:58;3.30;;;2.20;;
8986;SDS011;4529;51.360;12.474;2023-05-29T20:33:03;3.73;;;2.80;;
8986;SDS011;4529;51.360;12.474;2023-05-29T20:38:06;4.53;;;2.37;;
8986;SDS011;4529;51.360;12.474;2023-05-29T20:43:10;4.13;;;2.40;;
8986;SDS011;4529;51.360;12.474;2023-05-29T20:48:23;3.50;;;2.20;;
8986;SDS011;4529;51.360;12.474;2023-05-29T20:53:28;3.60;;;2.20;;
8986;SDS011;4529;51.360;12.474;2023-05-29T20:58:31;3.27;;;2.33;;
8986;SDS011;4529;51.360;12.474;2023-05-29T21:03:35;5.50;;;2.57;;
8986;SDS011;4529;51.360;12.474;2023-05-29T21:08:38;4.70;;;2.60;;
8986;SDS011;4529;51.360;12.474;2023-05-29T21:13:42;5.67;;;2.80;;
8986;SDS011;4529;51.360;12.474;2023-05-29T21:18:45;4.67;;;2.50;;
8986;SDS011;4529;51.360;12.474;2023-05-29T21:23:49;6.47;;;2.80;;
8986;SDS011;4529;51.360;12.474;2023-05-29T21:28:53;2.90;;;2.47;;
8986;SDS011;4529;51.360;12.474;2023-05-29T21:33:56;3.40;;;2.50;;
8986;SDS011;4529;51.360;12.474;2023-05-29T21:39:00;2.60;;;2.10;;
8986;SDS011;4529;51.360;12.474;2023-05-29T21:44:03;4.30;;;2.50;;
8986;SDS011;4529;51.360;12.474;2023-05-29T21:49:07;3.67;;;2.30;;
8986;SDS011;4529;51.360;12.474;2023-05-29T21:54:10;2.23;;;1.90;;
8986;SDS011;4529;51.360;12.474;2023-05-29T21:59:14;4.47;;;2.50;;
8986;SDS011;4529;51.360;12.474;2023-05-29T22:04:17;4.93;;;2.23;;
8986;SDS011;4529;51.360;12.474;2023-05-29T22:09:21;3.03;;;2.00;;
8986;SDS011;4529;51.360;12.474;2023-05-29T22:14:24;4.07;;;2.13;;
8986;SDS011;4529;51.360;12.474;2023-05-29T22:19:28;4.83;;;2.17;;
8986;SDS011;4529;51.360;12.474;2023-05-29T22:24:31;4.50;;;2.07;;
8986;SDS011;4529;51.360;12.474;2023-05-29T22:29:34;5.57;;;2.30;;
8986;SDS011;4529;51.360;12.474;2023-05-29T22:34:38;3.67;;;2.17;;
8986;SDS011;4529;51.360;12.474;2023-05-29T22:39:41;4.50;;;2.20;;
8986;SDS011;4529;51.360;12.474;2023-05-29T22:44:45;4.80;;;2.30;;
8986;SDS011;4529;51.360;12.474;2023-05-29T22:49:48;3.23;;;2.10;;
8986;SDS011;4529;51.360;12.474;2023-05-29T22:54:52;3.90;;;2.27;;
8986;SDS011;4529;51.360;12.474;2023-05-29T22:59:55;2.10;;;1.90;;
8986;SDS011;4529;51.360;12.474;2023-05-29T23:04:59;6.13;;;2.20;;
8986;SDS011;4529;51.360;12.474;2023-05-29T23:10:03;5.77;;;2.27;;
8986;SDS011;4529;51.360;12.474;2023-05-29T23:15:07;5.63;;;2.37;;
8986;SDS011;4529;51.360;12.474;2023-05-29T23:20:10;3.80;;;2.10;;
8986;SDS011;4529;51.360;12.474;2023-05-29T23:25:13;4.37;;;2.13;;
8986;SDS011;4529;51.360;12.474;2023-05-29T23:30:17;3.40;;;2.30;;
8986;SDS011;4529;51.360;12.474;2023-05-29T23:35:20;3.93;;;2.00;;
8986;SDS011;4529;51.360;12.474;2023-05-29T23:40:24;3.37;;;2.20;;
8986;SDS011;4529;51.360;12.474;2023-05-29T23:45:27;3.80;;;1.90;;
8986;SDS011;4529;51.360;12.474;2023-05-29T23:50:31;3.90;;;2.37;;
8986;SDS011;4529;51.360;12.474;2023-05-29T23:55:34;2.13;;;1.93;;
